createdAt,value
2019-02-27T00:00:47.126Z,82.87
2019-02-27T00:01:49.629Z,82.55
2019-02-27T00:02:47.108Z,82.87
2019-02-27T00:03:47.028Z,82.76
2019-02-27T00:04:47.049Z,82.97
2019-02-27T00:05:47.012Z,83.28
2019-02-27T00:06:47.900Z,83.39
2019-02-27T00:07:46.951Z,82.90
2019-02-27T00:08:47.055Z,83.01
2019-02-27T00:09:46.958Z,82.90
2019-02-27T00:10:46.954Z,83.01
2019-02-27T00:11:46.936Z,83.01
2019-02-27T00:12:46.976Z,82.90
2019-02-27T00:13:46.886Z,83.01
2019-02-27T00:14:47.017Z,82.80
2019-02-27T00:15:46.881Z,82.70
2019-02-27T00:16:46.897Z,83.53
2019-02-27T00:17:51.073Z,83.22
2019-02-27T00:18:47.964Z,83.53
2019-02-27T00:19:46.824Z,82.94
2019-02-27T00:20:46.958Z,83.25
2019-02-27T00:21:46.807Z,83.42
2019-02-27T00:22:47.910Z,83.36
2019-02-27T00:23:46.785Z,83.32
2019-02-27T00:24:46.845Z,83.47
2019-02-27T00:25:46.789Z,83.36
2019-02-27T00:26:46.860Z,83.78
2019-02-27T00:27:49.256Z,83.36
2019-02-27T00:28:46.771Z,83.57
2019-02-27T00:29:46.730Z,83.25
2019-02-27T00:30:46.825Z,84.02
2019-02-27T00:31:46.729Z,83.81
2019-02-27T00:32:50.965Z,83.88
2019-02-27T00:33:46.673Z,83.78
2019-02-27T00:34:46.709Z,83.50
2019-02-27T00:35:46.661Z,83.47
2019-02-27T00:36:46.760Z,83.88
2019-02-27T00:37:46.631Z,83.57
2019-02-27T00:38:46.743Z,83.67
2019-02-27T00:39:46.620Z,83.78
2019-02-27T00:40:46.649Z,83.47
2019-02-27T00:41:46.691Z,84.02
2019-02-27T00:42:46.670Z,83.67
2019-02-27T00:43:46.576Z,84.44
2019-02-27T00:44:46.681Z,84.65
2019-02-27T00:45:46.576Z,84.40
2019-02-27T00:46:47.071Z,84.65
2019-02-27T00:47:46.535Z,84.23
2019-02-27T00:48:46.602Z,85.38
2019-02-27T00:49:46.514Z,84.40
2019-02-27T00:50:46.613Z,84.44
2019-02-27T00:51:46.517Z,84.65
2019-02-27T00:52:50.861Z,84.75
2019-02-27T00:53:47.468Z,84.75
2019-02-27T00:54:46.545Z,84.34
2019-02-27T00:55:46.445Z,84.44
2019-02-27T00:56:46.554Z,84.65
2019-02-27T00:57:46.454Z,84.65
2019-02-27T00:58:46.470Z,84.55
2019-02-27T00:59:46.407Z,84.55
2019-02-27T01:00:46.487Z,84.23
2019-02-27T01:01:47.546Z,84.55
2019-02-27T01:02:46.431Z,84.55
2019-02-27T01:03:46.356Z,84.86
2019-02-27T01:04:46.413Z,84.65
2019-02-27T01:05:46.338Z,84.30
2019-02-27T01:06:47.602Z,84.65
2019-02-27T01:07:46.346Z,85.06
2019-02-27T01:08:46.330Z,85.27
2019-02-27T01:09:46.304Z,84.65
2019-02-27T01:10:46.344Z,84.75
2019-02-27T01:11:46.273Z,85.27
2019-02-27T01:12:46.388Z,85.27
2019-02-27T01:13:46.247Z,85.27
2019-02-27T01:14:46.273Z,84.55
2019-02-27T01:15:46.230Z,85.27
2019-02-27T01:16:47.725Z,85.00
2019-02-27T01:17:46.239Z,84.55
2019-02-27T01:18:46.311Z,84.34
2019-02-27T01:19:46.186Z,84.27
2019-02-27T01:20:46.641Z,84.27
2019-02-27T01:21:46.168Z,84.38
2019-02-27T01:22:46.364Z,84.58
2019-02-27T01:23:46.180Z,84.48
2019-02-27T01:24:49.939Z,85.21
2019-02-27T01:25:46.132Z,85.21
2019-02-27T01:26:46.150Z,85.42
2019-02-27T01:27:46.127Z,84.38
2019-02-27T01:28:46.196Z,85.42
2019-02-27T01:29:46.094Z,85.21
2019-02-27T01:30:46.182Z,85.46
2019-02-27T01:31:46.090Z,85.56
2019-02-27T01:32:46.092Z,85.56
2019-02-27T01:33:46.063Z,85.14
2019-02-27T01:34:46.102Z,85.46
2019-02-27T01:35:46.017Z,85.67
2019-02-27T01:36:46.121Z,86.19
2019-02-27T01:37:45.999Z,85.25
2019-02-27T01:38:46.071Z,85.14
2019-02-27T01:39:45.989Z,85.35
2019-02-27T01:40:46.040Z,86.44
2019-02-27T01:41:45.950Z,85.88
2019-02-27T01:42:46.061Z,85.60
2019-02-27T01:43:45.965Z,86.54
2019-02-27T01:44:46.666Z,86.44
2019-02-27T01:45:45.919Z,86.75
2019-02-27T01:46:46.003Z,86.33
2019-02-27T01:47:45.886Z,86.13
2019-02-27T01:48:45.994Z,85.81
2019-02-27T01:49:48.944Z,86.44
2019-02-27T01:50:45.908Z,86.75
2019-02-27T01:51:45.851Z,86.65
2019-02-27T01:52:45.922Z,86.54
2019-02-27T01:53:45.820Z,86.44
2019-02-27T01:54:48.730Z,85.71
2019-02-27T01:55:45.821Z,86.54
2019-02-27T01:56:45.952Z,86.75
2019-02-27T01:57:45.782Z,87.27
2019-02-27T01:58:46.001Z,87.48
2019-02-27T01:59:50.034Z,86.85
2019-02-27T02:00:45.876Z,86.75
2019-02-27T02:01:45.743Z,86.54
2019-02-27T02:02:45.793Z,86.79
2019-02-27T02:03:47.454Z,86.75
2019-02-27T02:04:45.837Z,86.58
2019-02-27T02:05:45.704Z,86.90
2019-02-27T02:06:45.719Z,87.59
2019-02-27T02:07:45.697Z,87.84
2019-02-27T02:08:47.961Z,88.15
2019-02-27T02:09:45.713Z,88.11
2019-02-27T02:10:45.739Z,88.32
2019-02-27T02:11:45.631Z,88.46
2019-02-27T02:12:45.654Z,88.53
2019-02-27T02:13:48.068Z,87.59
2019-02-27T02:14:45.692Z,87.59
2019-02-27T02:15:45.590Z,87.07
2019-02-27T02:16:45.690Z,86.85
2019-02-27T02:17:45.570Z,86.85
2019-02-27T02:18:45.752Z,87.17
2019-02-27T02:19:45.549Z,87.38
2019-02-27T02:20:45.643Z,88.01
2019-02-27T02:21:45.523Z,87.69
2019-02-27T02:22:45.620Z,87.69
2019-02-27T02:23:47.814Z,88.21
2019-02-27T02:24:45.537Z,86.96
2019-02-27T02:25:45.536Z,88.32
2019-02-27T02:26:45.545Z,86.96
2019-02-27T02:27:45.461Z,86.75
2019-02-27T02:28:48.080Z,86.96
2019-02-27T02:29:45.439Z,86.44
2019-02-27T02:30:45.517Z,86.54
2019-02-27T02:31:45.415Z,87.07
2019-02-27T02:32:51.734Z,87.07
2019-02-27T02:33:46.398Z,87.27
2019-02-27T02:34:45.499Z,87.27
2019-02-27T02:35:49.570Z,86.96
2019-02-27T02:36:46.497Z,86.54
2019-02-27T02:37:45.365Z,86.65
2019-02-27T02:38:45.419Z,86.65
2019-02-27T02:39:45.329Z,86.33
2019-02-27T02:40:45.452Z,87.48
2019-02-27T02:41:48.010Z,88.21
2019-02-27T02:42:45.344Z,87.69
2019-02-27T02:43:45.295Z,87.38
2019-02-27T02:44:45.363Z,87.17
2019-02-27T02:45:45.266Z,86.69
2019-02-27T02:46:46.387Z,86.90
2019-02-27T02:47:45.251Z,86.33
2019-02-27T02:48:45.283Z,86.58
2019-02-27T02:49:45.226Z,86.58
2019-02-27T02:50:45.299Z,86.69
2019-02-27T02:51:45.232Z,86.79
2019-02-27T02:52:45.314Z,87.52
2019-02-27T02:53:45.213Z,87.31
2019-02-27T02:54:45.228Z,87.52
2019-02-27T02:55:49.008Z,87.31
2019-02-27T02:56:45.268Z,87.52
2019-02-27T02:57:45.171Z,87.10
2019-02-27T02:58:48.391Z,87.84
2019-02-27T02:59:45.117Z,88.36
2019-02-27T03:00:45.167Z,87.52
2019-02-27T03:01:45.697Z,86.69
2019-02-27T03:02:45.207Z,87.42
2019-02-27T03:03:45.079Z,87.15
2019-02-27T03:04:48.235Z,86.83
2019-02-27T03:05:45.052Z,87.25
2019-02-27T03:06:45.107Z,87.77
2019-02-27T03:07:45.691Z,87.77
2019-02-27T03:08:45.121Z,87.77
2019-02-27T03:09:45.010Z,88.09
2019-02-27T03:10:45.034Z,88.02
2019-02-27T03:11:44.997Z,88.40
2019-02-27T03:12:45.071Z,88.02
2019-02-27T03:13:45.004Z,88.61
2019-02-27T03:14:45.056Z,88.29
2019-02-27T03:15:44.951Z,88.54
2019-02-27T03:16:44.985Z,88.50
2019-02-27T03:17:44.954Z,88.29
2019-02-27T03:18:44.986Z,88.29
2019-02-27T03:19:44.905Z,88.44
2019-02-27T03:20:45.023Z,88.12
2019-02-27T03:21:44.882Z,88.29
2019-02-27T03:22:44.941Z,88.44
2019-02-27T03:23:51.021Z,88.54
2019-02-27T03:24:45.948Z,88.86
2019-02-27T03:25:44.847Z,88.96
2019-02-27T03:26:44.935Z,88.54
2019-02-27T03:27:44.843Z,88.65
2019-02-27T03:28:44.886Z,88.54
2019-02-27T03:29:44.793Z,88.44
2019-02-27T03:30:44.872Z,88.44
2019-02-27T03:31:44.769Z,89.07
2019-02-27T03:32:44.878Z,88.54
2019-02-27T03:33:44.779Z,88.44
2019-02-27T03:34:50.323Z,88.34
2019-02-27T03:35:45.729Z,88.23
2019-02-27T03:36:44.809Z,88.23
2019-02-27T03:37:48.097Z,88.65
2019-02-27T03:38:44.959Z,89.17
2019-02-27T03:39:44.685Z,89.07
2019-02-27T03:41:45.801Z,88.96
2019-02-27T03:42:44.745Z,88.54
2019-02-27T03:43:46.091Z,88.59
2019-02-27T03:44:44.789Z,88.79
2019-02-27T03:45:44.622Z,88.65
2019-02-27T03:46:44.672Z,88.37
2019-02-27T03:47:44.608Z,88.79
2019-02-27T03:48:44.726Z,89.00
2019-02-27T03:49:44.578Z,89.53
2019-02-27T03:50:49.469Z,89.42
2019-02-27T03:51:45.561Z,90.16
2019-02-27T03:52:44.606Z,90.47
2019-02-27T03:53:46.446Z,90.26
2019-02-27T03:54:44.650Z,90.36
2019-02-27T03:55:44.519Z,90.26
2019-02-27T03:56:44.798Z,90.16
2019-02-27T03:57:44.495Z,90.47
2019-02-27T03:58:44.544Z,90.33
2019-02-27T03:59:44.487Z,90.89
2019-02-27T04:00:44.562Z,90.95
2019-02-27T04:01:44.446Z,90.84
2019-02-27T04:02:44.475Z,91.06
2019-02-27T04:03:44.419Z,90.84
2019-02-27T04:04:44.515Z,90.74
2019-02-27T04:05:46.268Z,91.06
2019-02-27T04:06:44.497Z,90.74
2019-02-27T04:07:44.390Z,90.84
2019-02-27T04:08:45.063Z,90.74
2019-02-27T04:09:44.384Z,90.01
2019-02-27T04:10:44.431Z,90.11
2019-02-27T04:11:44.334Z,90.11
2019-02-27T04:12:44.434Z,89.53
2019-02-27T04:13:44.320Z,90.78
2019-02-27T04:14:44.385Z,89.53
2019-02-27T04:15:44.288Z,89.53
2019-02-27T04:16:44.373Z,89.73
2019-02-27T04:17:44.274Z,89.73
2019-02-27T04:18:44.381Z,89.32
2019-02-27T04:19:44.319Z,90.74
2019-02-27T04:20:49.839Z,89.73
2019-02-27T04:21:45.221Z,89.53
2019-02-27T04:22:44.305Z,89.53
2019-02-27T04:23:47.797Z,90.16
2019-02-27T04:24:44.337Z,89.63
2019-02-27T04:25:44.221Z,89.73
2019-02-27T04:26:44.235Z,89.22
2019-02-27T04:27:44.156Z,89.11
2019-02-27T04:28:44.248Z,89.53
2019-02-27T04:29:44.136Z,89.63
2019-02-27T04:30:44.185Z,89.73
2019-02-27T04:31:44.111Z,89.53
2019-02-27T04:32:47.647Z,89.73
2019-02-27T04:33:44.094Z,89.32
2019-02-27T04:34:44.186Z,89.22
2019-02-27T04:35:44.099Z,89.00
2019-02-27T04:36:46.959Z,88.94
2019-02-27T04:37:44.050Z,88.90
2019-02-27T04:38:44.114Z,89.73
2019-02-27T04:39:44.027Z,90.36
2019-02-27T04:40:44.746Z,89.63
2019-02-27T04:41:44.034Z,90.47
2019-02-27T04:42:44.033Z,90.58
2019-02-27T04:43:43.984Z,90.30
2019-02-27T04:44:44.046Z,90.61
2019-02-27T04:45:46.749Z,90.61
2019-02-27T04:46:44.088Z,90.61
2019-02-27T04:47:43.943Z,90.41
2019-02-27T04:48:43.971Z,90.41
2019-02-27T04:49:43.929Z,90.30
2019-02-27T04:50:44.302Z,90.30
2019-02-27T04:51:43.917Z,89.67
2019-02-27T04:52:43.999Z,89.78
2019-02-27T04:53:43.877Z,89.15
2019-02-27T04:54:43.911Z,89.47
2019-02-27T04:55:43.849Z,89.67
2019-02-27T04:56:43.954Z,90.41
2019-02-27T04:57:43.829Z,90.20
2019-02-27T04:58:43.938Z,90.51
2019-02-27T04:59:43.806Z,90.09
2019-02-27T05:00:43.851Z,90.09
2019-02-27T05:01:43.833Z,89.88
2019-02-27T05:02:43.864Z,90.61
2019-02-27T05:03:43.765Z,89.88
2019-02-27T05:04:43.874Z,90.30
2019-02-27T05:05:43.743Z,90.41
2019-02-27T05:06:46.829Z,90.51
2019-02-27T05:07:43.717Z,91.08
2019-02-27T05:08:43.805Z,91.03
2019-02-27T05:09:43.695Z,91.46
2019-02-27T05:10:43.714Z,90.41
2019-02-27T05:11:47.508Z,90.83
2019-02-27T05:12:47.844Z,91.14
2019-02-27T05:13:43.677Z,91.14
2019-02-27T05:14:43.759Z,91.46
2019-02-27T05:15:43.637Z,91.35
2019-02-27T05:16:47.033Z,91.14
2019-02-27T05:17:43.641Z,90.72
2019-02-27T05:18:43.668Z,90.41
2019-02-27T05:19:43.583Z,90.30
2019-02-27T05:20:45.683Z,90.30
2019-02-27T05:21:43.569Z,90.83
2019-02-27T05:22:43.622Z,90.72
2019-02-27T05:23:43.541Z,90.51
2019-02-27T05:24:43.610Z,90.30
2019-02-27T05:25:43.525Z,89.98
2019-02-27T05:26:43.622Z,90.09
2019-02-27T05:27:43.519Z,90.51
2019-02-27T05:28:43.532Z,90.41
2019-02-27T05:29:43.474Z,89.98
2019-02-27T05:30:45.326Z,90.20
2019-02-27T05:31:43.455Z,90.23
2019-02-27T05:32:43.617Z,90.34
2019-02-27T05:33:43.433Z,89.72
2019-02-27T05:34:43.470Z,89.82
2019-02-27T05:35:43.415Z,90.34
2019-02-27T05:36:43.495Z,90.61
2019-02-27T05:37:43.415Z,90.13
2019-02-27T05:38:44.141Z,90.55
2019-02-27T05:39:43.397Z,91.08
2019-02-27T05:40:43.439Z,91.08
2019-02-27T05:41:43.340Z,90.97
2019-02-27T05:42:43.455Z,91.71
2019-02-27T05:43:47.564Z,90.87
2019-02-27T05:44:44.357Z,91.39
2019-02-27T05:45:43.295Z,91.08
2019-02-27T05:46:43.355Z,91.28
2019-02-27T05:47:45.778Z,91.18
2019-02-27T05:48:43.615Z,91.08
2019-02-27T05:49:43.265Z,90.87
2019-02-27T05:50:44.439Z,90.45
2019-02-27T05:51:43.231Z,90.49
2019-02-27T05:52:43.319Z,90.45
2019-02-27T05:53:43.241Z,90.76
2019-02-27T05:54:43.303Z,90.45
2019-02-27T05:55:43.189Z,90.49
2019-02-27T05:56:43.214Z,90.66
2019-02-27T05:57:43.164Z,90.66
2019-02-27T05:58:43.259Z,90.55
2019-02-27T05:59:43.145Z,90.55
2019-02-27T06:00:43.248Z,90.87
2019-02-27T06:01:43.142Z,91.39
2019-02-27T06:02:44.946Z,91.22
2019-02-27T06:03:43.130Z,91.01
2019-02-27T06:04:43.173Z,91.01
2019-02-27T06:05:49.444Z,91.39
2019-02-27T06:07:43.056Z,91.01
2019-02-27T06:08:43.083Z,91.43
2019-02-27T06:09:43.858Z,91.08
2019-02-27T06:10:43.030Z,92.33
2019-02-27T06:11:43.017Z,91.81
2019-02-27T06:13:45.006Z,92.65
2019-02-27T06:14:43.020Z,92.02
2019-02-27T06:15:42.976Z,92.44
2019-02-27T06:16:43.049Z,92.44
2019-02-27T06:17:43.668Z,91.81
2019-02-27T06:19:44.079Z,91.71
2019-02-27T06:20:42.974Z,91.39
2019-02-27T06:21:42.895Z,91.60
2019-02-27T06:22:45.847Z,91.81
2019-02-27T06:23:42.889Z,91.39
2019-02-27T06:24:43.110Z,91.28
2019-02-27T06:25:42.854Z,91.39
2019-02-27T06:27:43.960Z,91.12
2019-02-27T06:28:42.922Z,91.12
2019-02-27T06:29:42.834Z,91.12
2019-02-27T06:30:42.839Z,90.91
2019-02-27T06:31:42.792Z,91.08
2019-02-27T06:32:42.856Z,91.12
2019-02-27T06:33:45.103Z,91.43
2019-02-27T06:34:42.926Z,91.33
2019-02-27T06:35:42.777Z,91.43
2019-02-27T06:36:43.037Z,91.85
2019-02-27T06:37:42.727Z,91.64
2019-02-27T06:38:42.791Z,91.71
2019-02-27T06:39:42.752Z,91.96
2019-02-27T06:40:42.958Z,91.75
2019-02-27T06:41:42.678Z,91.43
2019-02-27T06:42:42.718Z,91.53
2019-02-27T06:43:42.665Z,91.39
2019-02-27T06:44:42.726Z,91.60
2019-02-27T06:45:45.378Z,92.23
2019-02-27T06:46:44.482Z,92.13
2019-02-27T06:47:42.608Z,92.54
2019-02-27T06:48:43.607Z,93.17
2019-02-27T06:49:42.585Z,93.59
2019-02-27T06:50:42.698Z,93.80
2019-02-27T06:51:42.570Z,93.55
2019-02-27T06:52:43.110Z,93.65
2019-02-27T06:53:42.547Z,93.24
2019-02-27T06:54:42.603Z,93.24
2019-02-27T06:55:42.555Z,93.44
2019-02-27T06:56:42.609Z,91.87
2019-02-27T06:57:42.502Z,92.19
2019-02-27T06:58:42.551Z,91.94
2019-02-27T06:59:42.484Z,91.72
2019-02-27T07:00:42.573Z,91.52
2019-02-27T07:01:45.132Z,91.20
2019-02-27T07:02:42.543Z,91.41
2019-02-27T07:03:42.444Z,90.89
2019-02-27T07:04:42.456Z,90.53
2019-02-27T07:05:42.414Z,90.43
2019-02-27T07:06:42.502Z,90.33
2019-02-27T07:07:42.395Z,90.01
2019-02-27T07:08:42.482Z,90.81
2019-02-27T07:09:43.226Z,89.55
2019-02-27T07:10:42.506Z,89.38
2019-02-27T07:11:45.112Z,89.34
2019-02-27T07:12:42.719Z,89.23
2019-02-27T07:13:42.349Z,88.92
2019-02-27T07:14:42.839Z,88.82
2019-02-27T07:15:47.891Z,88.61
2019-02-27T07:16:43.364Z,88.26
2019-02-27T07:17:42.281Z,88.15
2019-02-27T07:19:43.383Z,88.36
2019-02-27T07:21:43.394Z,88.01
2019-02-27T07:23:43.353Z,87.13
2019-02-27T07:25:43.325Z,86.51
2019-02-27T07:26:43.566Z,86.82
2019-02-27T07:27:42.181Z,86.51
2019-02-27T07:29:43.296Z,86.46
2019-02-27T07:31:43.309Z,84.86
2019-02-27T07:33:43.242Z,84.55
2019-02-27T07:34:43.997Z,84.72
2019-02-27T07:35:42.100Z,83.88
2019-02-27T07:36:44.153Z,83.57
2019-02-27T07:37:47.123Z,83.57
2019-02-27T07:39:43.181Z,83.57
2019-02-27T07:40:44.352Z,83.32
2019-02-27T07:41:42.028Z,83.01
2019-02-27T07:42:44.502Z,83.53
2019-02-27T07:43:42.012Z,82.90
2019-02-27T07:44:44.582Z,83.07
2019-02-27T07:45:42.807Z,82.97
2019-02-27T07:46:44.608Z,82.65
2019-02-27T07:47:41.999Z,82.31
2019-02-27T07:48:44.828Z,82.34
2019-02-27T07:49:41.963Z,81.89
2019-02-27T07:50:48.351Z,82.31
2019-02-27T07:51:41.915Z,81.79
2019-02-27T07:52:45.393Z,81.58
2019-02-27T07:53:41.910Z,81.58
2019-02-27T07:55:43.024Z,81.33
2019-02-27T07:57:43.044Z,81.29
2019-02-27T07:58:45.404Z,81.40
2019-02-27T07:59:41.844Z,81.09
2019-02-27T08:01:44.009Z,80.36
2019-02-27T08:02:45.555Z,80.43
2019-02-27T08:03:44.778Z,80.32
2019-02-27T08:04:45.437Z,79.91
2019-02-27T08:05:41.763Z,79.55
2019-02-27T08:06:46.328Z,79.35
2019-02-27T08:07:41.798Z,78.83
2019-02-27T08:08:45.600Z,78.52
2019-02-27T08:09:41.723Z,78.27
2019-02-27T08:10:45.612Z,77.72
2019-02-27T08:11:41.699Z,77.72
2019-02-27T08:12:45.723Z,77.82
2019-02-27T08:14:42.838Z,77.40
2019-02-27T08:16:41.658Z,77.75
2019-02-27T08:18:41.694Z,76.99
2019-02-27T08:19:45.319Z,75.95
2019-02-27T08:20:41.604Z,76.12
2019-02-27T08:21:43.819Z,75.81
2019-02-27T08:22:41.639Z,75.05
2019-02-27T08:23:42.334Z,74.95
2019-02-27T08:24:41.709Z,75.74
2019-02-27T08:25:41.760Z,75.53
2019-02-27T08:26:41.540Z,75.12
2019-02-27T08:27:43.811Z,74.81
2019-02-27T08:28:41.547Z,74.57
2019-02-27T08:29:41.624Z,74.77
2019-02-27T08:30:41.505Z,74.05
2019-02-27T08:31:41.528Z,73.60
2019-02-27T08:32:41.487Z,73.08
2019-02-27T08:33:41.573Z,73.15
2019-02-27T08:34:41.508Z,72.85
2019-02-27T08:35:41.597Z,72.43
2019-02-27T08:36:41.452Z,72.43
2019-02-27T08:37:41.497Z,71.88
2019-02-27T08:38:41.449Z,71.98
2019-02-27T08:39:41.500Z,72.26
2019-02-27T08:40:41.395Z,71.95
2019-02-27T08:41:41.497Z,71.30
2019-02-27T08:42:41.366Z,71.19
2019-02-27T08:43:41.977Z,70.98
2019-02-27T08:44:42.953Z,70.75
2019-02-27T08:45:41.423Z,70.95
2019-02-27T08:46:41.344Z,69.92
2019-02-27T08:47:43.406Z,70.09
2019-02-27T08:48:41.339Z,69.68
2019-02-27T08:49:41.397Z,69.27
2019-02-27T08:50:41.279Z,69.13
2019-02-27T08:51:42.164Z,69.03
2019-02-27T08:52:41.257Z,69.31
2019-02-27T08:53:41.275Z,69.41
2019-02-27T08:54:41.280Z,69.51
2019-02-27T08:55:41.300Z,69.07
2019-02-27T08:56:44.025Z,69.17
2019-02-27T08:58:42.330Z,69.17
2019-02-27T08:59:41.345Z,68.11
2019-02-27T09:00:41.172Z,68.52
2019-02-27T09:01:41.227Z,67.49
2019-02-27T09:02:41.197Z,67.70
2019-02-27T09:03:41.236Z,67.36
2019-02-27T09:04:42.904Z,67.66
2019-02-27T09:05:41.149Z,67.57
2019-02-27T09:06:41.100Z,67.57
2019-02-27T09:07:43.015Z,66.81
2019-02-27T09:08:44.090Z,67.50
2019-02-27T09:09:41.388Z,67.19
2019-02-27T09:10:41.109Z,66.78
2019-02-27T09:11:41.099Z,66.44
2019-02-27T09:12:41.037Z,66.96
2019-02-27T09:13:41.113Z,65.48
2019-02-27T09:14:41.061Z,65.28
2019-02-27T09:15:41.766Z,65.28
2019-02-27T09:16:40.991Z,64.87
2019-02-27T09:17:41.049Z,64.63
2019-02-27T09:18:40.976Z,64.63
2019-02-27T09:19:45.279Z,62.99
2019-02-27T09:20:41.975Z,62.55
2019-02-27T09:21:41.128Z,61.42
2019-02-27T09:22:40.964Z,62.01
2019-02-27T09:23:41.009Z,60.77
2019-02-27T09:24:40.915Z,60.77
2019-02-27T09:25:42.347Z,59.41
2019-02-27T09:26:42.364Z,60.51
2019-02-27T09:27:40.993Z,60.00
2019-02-27T09:28:44.203Z,60.31
2019-02-27T09:29:40.905Z,59.66
2019-02-27T09:30:40.871Z,58.95
2019-02-27T09:31:50.490Z,59.05
2019-02-27T09:32:43.250Z,57.69
2019-02-27T09:33:40.934Z,57.28
2019-02-27T09:34:40.803Z,57.87
2019-02-27T09:35:40.878Z,57.15
2019-02-27T09:36:42.999Z,57.33
2019-02-27T09:37:40.861Z,58.15
2019-02-27T09:38:40.761Z,55.28
2019-02-27T09:39:40.784Z,55.28
2019-02-27T09:40:40.769Z,55.05
2019-02-27T09:41:46.065Z,53.11
2019-02-27T09:42:41.713Z,54.51
2019-02-27T09:43:40.804Z,54.10
2019-02-27T09:44:40.691Z,52.67
2019-02-27T09:45:40.755Z,51.53
2019-02-27T09:46:40.671Z,52.55
2019-02-27T09:47:40.730Z,53.06
2019-02-27T09:48:40.650Z,52.52
2019-02-27T09:49:41.524Z,51.93
2019-02-27T09:50:40.659Z,51.40
2019-02-27T09:51:41.705Z,51.40
2019-02-27T09:52:40.600Z,51.19
2019-02-27T09:53:40.665Z,50.96
2019-02-27T09:54:40.585Z,50.76
2019-02-27T09:56:41.716Z,51.76
2019-02-27T09:57:40.591Z,51.02
2019-02-27T09:58:45.109Z,51.02
2019-02-27T09:59:40.600Z,51.30
2019-02-27T10:00:40.518Z,49.37
2019-02-27T10:01:40.648Z,49.87
2019-02-27T10:02:43.152Z,49.87
2019-02-27T10:03:41.554Z,51.07
2019-02-27T10:04:40.470Z,50.56
2019-02-27T10:05:40.925Z,50.77
2019-02-27T10:06:42.770Z,49.93
2019-02-27T10:07:40.590Z,49.83
2019-02-27T10:08:40.424Z,49.32
2019-02-27T10:09:40.487Z,48.89
2019-02-27T10:10:44.775Z,48.58
2019-02-27T10:11:41.503Z,47.34
2019-02-27T10:12:42.269Z,47.16
2019-02-27T10:13:40.494Z,46.52
2019-02-27T10:15:41.351Z,47.24
2019-02-27T10:16:40.416Z,46.20
2019-02-27T10:17:41.073Z,45.89
2019-02-27T10:18:40.430Z,46.09
2019-02-27T10:19:40.307Z,45.36
2019-02-27T10:20:40.342Z,44.45
2019-02-27T10:21:41.317Z,44.65
2019-02-27T10:22:40.385Z,43.20
2019-02-27T10:23:40.301Z,42.59
2019-02-27T10:24:40.370Z,43.71
2019-02-27T10:25:43.188Z,42.57
2019-02-27T10:26:40.280Z,41.96
2019-02-27T10:27:40.215Z,40.14
2019-02-27T10:28:40.326Z,37.98
2019-02-27T10:29:40.197Z,38.39
2019-02-27T10:30:40.309Z,37.88
2019-02-27T10:31:40.184Z,38.79
2019-02-27T10:32:40.225Z,37.58
2019-02-27T10:33:43.005Z,38.07
2019-02-27T10:34:40.244Z,37.46
2019-02-27T10:35:40.134Z,37.66
2019-02-27T10:36:40.254Z,38.45
2019-02-27T10:37:40.158Z,38.25
2019-02-27T10:38:40.613Z,38.86
2019-02-27T10:39:40.093Z,38.05
2019-02-27T10:40:40.169Z,37.54
2019-02-27T10:41:40.067Z,37.13
2019-02-27T10:42:40.089Z,38.25
2019-02-27T10:43:40.088Z,38.95
2019-02-27T10:44:40.097Z,37.73
2019-02-27T10:45:42.098Z,37.12
2019-02-27T10:46:40.113Z,37.62
2019-02-27T10:47:40.042Z,37.32
2019-02-27T10:48:40.057Z,35.99
2019-02-27T10:49:39.983Z,35.78
2019-02-27T10:50:40.036Z,37.30
2019-02-27T10:51:41.515Z,36.88
2019-02-27T10:52:40.063Z,34.64
2019-02-27T10:53:39.962Z,34.53
2019-02-27T10:54:40.009Z,34.05
2019-02-27T10:55:39.926Z,34.65
2019-02-27T10:56:39.974Z,34.84
2019-02-27T10:57:39.899Z,34.74
2019-02-27T10:58:39.988Z,33.52
2019-02-27T10:59:39.900Z,33.52
2019-02-27T11:00:39.901Z,33.30
2019-02-27T11:01:39.851Z,34.31
2019-02-27T11:02:39.921Z,34.31
2019-02-27T11:03:39.857Z,34.31
2019-02-27T11:04:39.978Z,33.20
2019-02-27T11:05:39.808Z,34.00
2019-02-27T11:06:39.839Z,33.29
2019-02-27T11:07:39.791Z,32.48
2019-02-27T11:08:39.859Z,31.06
2019-02-27T11:09:41.282Z,31.35
2019-02-27T11:10:39.867Z,30.94
2019-02-27T11:11:39.740Z,31.15
2019-02-27T11:12:39.804Z,31.25
2019-02-27T11:13:39.717Z,30.84
2019-02-27T11:14:39.831Z,30.54
2019-02-27T11:15:41.421Z,30.94
2019-02-27T11:16:39.817Z,31.84
2019-02-27T11:17:39.677Z,33.15
2019-02-27T11:18:39.723Z,31.23
2019-02-27T11:19:39.653Z,30.71
2019-02-27T11:20:39.770Z,31.42
2019-02-27T11:21:39.634Z,31.42
2019-02-27T11:22:39.646Z,32.62
2019-02-27T11:23:41.119Z,31.71
2019-02-27T11:24:39.673Z,31.20
2019-02-27T11:25:39.618Z,31.00
2019-02-27T11:26:39.678Z,32.32
2019-02-27T11:27:39.734Z,31.49
2019-02-27T11:28:39.592Z,30.48
2019-02-27T11:29:39.627Z,31.59
2019-02-27T11:30:39.636Z,33.01
2019-02-27T11:31:39.571Z,33.39
2019-02-27T11:32:39.616Z,32.29
2019-02-27T11:33:39.512Z,31.38
2019-02-27T11:34:39.529Z,33.29
2019-02-27T11:35:39.517Z,31.67
2019-02-27T11:36:39.663Z,32.98
2019-02-27T11:37:39.485Z,32.89
2019-02-27T11:38:39.561Z,31.67
2019-02-27T11:39:39.436Z,31.68
2019-02-27T11:40:42.668Z,31.96
2019-02-27T11:41:39.414Z,31.56
2019-02-27T11:42:39.479Z,32.17
2019-02-27T11:43:40.853Z,31.96
2019-02-27T11:44:39.583Z,32.87
2019-02-27T11:45:39.431Z,31.96
2019-02-27T11:46:39.402Z,32.67
2019-02-27T11:47:45.122Z,32.57
2019-02-27T11:48:40.332Z,32.67
2019-02-27T11:49:39.448Z,32.78
2019-02-27T11:50:39.319Z,31.46
2019-02-27T11:51:39.366Z,33.67
2019-02-27T11:52:48.276Z,33.36
2019-02-27T11:53:40.280Z,31.95
2019-02-27T11:54:43.002Z,32.64
2019-02-27T11:55:39.261Z,33.55
2019-02-27T11:56:39.298Z,33.25
2019-02-27T11:57:39.237Z,33.15
2019-02-27T11:58:39.277Z,32.75
2019-02-27T11:59:39.215Z,32.95
2019-02-27T12:00:39.296Z,32.64
2019-02-27T12:01:39.214Z,31.43
2019-02-27T12:02:39.308Z,32.93
2019-02-27T12:03:39.176Z,33.23
2019-02-27T12:04:39.222Z,33.23
2019-02-27T12:05:39.153Z,33.15
2019-02-27T12:06:41.670Z,33.45
2019-02-27T12:07:39.130Z,33.65
2019-02-27T12:08:39.144Z,33.23
2019-02-27T12:09:39.107Z,32.73
2019-02-27T12:10:39.157Z,33.13
2019-02-27T12:11:39.110Z,34.34
2019-02-27T12:12:39.175Z,32.73
2019-02-27T12:13:39.066Z,33.13
2019-02-27T12:14:39.197Z,32.73
2019-02-27T12:15:43.406Z,34.24
2019-02-27T12:16:40.157Z,35.75
2019-02-27T12:17:39.019Z,34.22
2019-02-27T12:18:39.114Z,33.51
2019-02-27T12:19:42.428Z,32.91
2019-02-27T12:20:39.047Z,33.01
2019-02-27T12:21:38.998Z,33.50
2019-02-27T12:22:39.035Z,33.82
2019-02-27T12:23:41.230Z,33.00
2019-02-27T12:24:39.968Z,32.90
2019-02-27T12:25:38.946Z,33.10
2019-02-27T12:26:38.966Z,33.00
2019-02-27T12:27:49.260Z,33.18
2019-02-27T12:28:39.946Z,33.99
2019-02-27T12:29:38.999Z,33.40
2019-02-27T12:30:38.881Z,34.79
2019-02-27T12:31:38.893Z,34.39
2019-02-27T12:32:38.883Z,34.69
2019-02-27T12:33:38.943Z,33.89
2019-02-27T12:34:38.832Z,34.69
2019-02-27T12:35:38.922Z,34.19
2019-02-27T12:36:38.823Z,33.08
2019-02-27T12:37:38.868Z,33.99
2019-02-27T12:38:39.314Z,34.49
2019-02-27T12:39:38.847Z,33.97
2019-02-27T12:40:38.772Z,34.98
2019-02-27T12:41:38.862Z,34.07
2019-02-27T12:42:42.498Z,33.07
2019-02-27T12:43:38.802Z,33.07
2019-02-27T12:44:38.727Z,34.47
2019-02-27T12:45:38.793Z,33.17
2019-02-27T12:46:38.708Z,34.17
2019-02-27T12:47:40.720Z,33.17
2019-02-27T12:48:38.706Z,33.07
2019-02-27T12:49:38.748Z,33.47
2019-02-27T12:50:38.660Z,32.67
2019-02-27T12:51:39.055Z,32.87
2019-02-27T12:52:38.654Z,32.67
2019-02-27T12:54:39.743Z,33.15
2019-02-27T12:55:38.654Z,32.55
2019-02-27T12:56:41.554Z,32.95
2019-02-27T12:57:39.692Z,33.14
2019-02-27T12:58:38.595Z,34.46
2019-02-27T12:59:38.683Z,32.84
2019-02-27T13:00:39.908Z,31.83
2019-02-27T13:01:38.593Z,33.54
2019-02-27T13:02:38.526Z,32.23
2019-02-27T13:03:42.238Z,33.15
2019-02-27T13:04:38.514Z,32.43
2019-02-27T13:05:38.622Z,33.14
2019-02-27T13:06:38.486Z,33.14
2019-02-27T13:07:38.545Z,34.64
2019-02-27T13:08:38.498Z,33.84
2019-02-27T13:09:38.681Z,33.12
2019-02-27T13:10:38.446Z,33.22
2019-02-27T13:11:39.050Z,32.53
2019-02-27T13:12:38.427Z,32.64
2019-02-27T13:13:38.471Z,33.72
2019-02-27T13:14:38.439Z,33.34
2019-02-27T13:15:40.990Z,33.54